Time;durP1;ratioP1;P1;durP2;ratioP2;P2;SDS_P1;SDS_P2;PMS_P1;PMS_P2;Temp;Humidity;BMP_temperature;BMP_pressure;BME280_temperature;BME280_humidity;BME280_pressure;Samples;Min_cycle;Max_cycle;Signal;HPM_P1;HPM_P2
2023/01/24 00:00:30;;;;;;;17.67;14.63;;;4.40;99.90;;;;;;5120274;28;20191;-37
2023/01/24 00:02:56;;;;;;;17.67;14.37;;;4.30;99.90;;;;;;5120424;28;20527;-37
2023/01/24 00:05:21;;;;;;;17.10;13.90;;;4.30;99.90;;;;;;5119501;28;20769;-37
2023/01/24 00:07:47;;;;;;;17.70;15.57;;;4.30;99.90;;;;;;5120036;28;20604;-38
2023/01/24 00:10:12;;;;;;;19.10;15.33;;;4.30;99.90;;;;;;5119813;28;20316;-37
2023/01/24 00:12:38;;;;;;;22.33;15.30;;;4.30;99.90;;;;;;5119737;28;20263;-37
2023/01/24 00:15:04;;;;;;;16.80;15.00;;;4.30;99.90;;;;;;5118767;28;20255;-37
2023/01/24 00:17:30;;;;;;;16.73;14.97;;;4.30;99.90;;;;;;5117981;28;20171;-38
2023/01/24 00:19:55;;;;;;;16.53;14.70;;;4.30;99.90;;;;;;5118469;28;20866;-37
2023/01/24 00:22:21;;;;;;;19.73;16.20;;;4.30;99.90;;;;;;5116706;28;20176;-37
2023/01/24 00:24:48;;;;;;;18.37;14.70;;;4.30;99.90;;;;;;5116184;28;20187;-37
2023/01/24 00:27:17;;;;;;;17.60;15.57;;;4.30;99.90;;;;;;5116040;28;20232;-37
2023/01/24 00:29:43;;;;;;;17.27;14.40;;;4.20;99.90;;;;;;5115226;28;20837;-36
2023/01/24 00:32:09;;;;;;;19.10;15.40;;;4.20;99.90;;;;;;5116080;28;20505;-36
2023/01/24 00:34:35;;;;;;;18.37;15.17;;;4.20;99.90;;;;;;5115715;28;20421;-37
2023/01/24 00:37:00;;;;;;;17.80;14.53;;;4.20;99.90;;;;;;5116628;28;20402;-37
2023/01/24 00:39:26;;;;;;;18.73;15.30;;;4.20;99.90;;;;;;5115581;28;20373;-37
2023/01/24 00:41:52;;;;;;;16.20;13.63;;;4.20;99.90;;;;;;5118399;28;20168;-37
2023/01/24 00:44:17;;;;;;;18.30;14.83;;;4.20;99.90;;;;;;5119013;28;20271;-38
2023/01/24 00:46:43;;;;;;;18.27;15.57;;;4.20;99.90;;;;;;5119417;28;20171;-37
2023/01/24 00:49:09;;;;;;;17.63;14.33;;;4.20;99.90;;;;;;5118057;28;20620;-38
2023/01/24 00:51:34;;;;;;;17.43;15.23;;;4.20;99.90;;;;;;5118278;28;20164;-37
2023/01/24 00:54:00;;;;;;;19.97;16.30;;;4.20;99.90;;;;;;5119077;28;20707;-37
2023/01/24 00:56:26;;;;;;;16.93;15.13;;;4.10;99.90;;;;;;5118528;28;20232;-38
2023/01/24 00:58:51;;;;;;;20.27;16.30;;;4.10;99.90;;;;;;5119111;28;20291;-38
2023/01/24 01:01:17;;;;;;;18.20;14.73;;;4.10;1.00;;;;;;5118156;28;20423;-37
2023/01/24 01:03:43;;;;;;;19.23;14.57;;;4.10;1.00;;;;;;5119527;28;20180;-36
2023/01/24 01:06:15;;;;;;;17.37;14.97;;;4.10;1.00;;;;;;5118939;28;20625;-37
2023/01/24 01:08:41;;;;;;;20.27;14.50;;;4.10;1.00;;;;;;5118828;28;20191;-37
2023/01/24 01:11:07;;;;;;;17.60;14.47;;;4.10;99.90;;;;;;5118889;28;20494;-37
2023/01/24 01:13:33;;;;;;;17.90;14.47;;;4.10;1.00;;;;;;5118632;27;20476;-37
2023/01/24 01:16:01;;;;;;;16.03;13.73;;;4.10;1.00;;;;;;5119251;28;20171;-37
2023/01/24 01:18:27;;;;;;;18.13;15.53;;;4.10;1.00;;;;;;5119421;28;20172;-37
2023/01/24 01:20:53;;;;;;;20.67;14.60;;;4.10;1.00;;;;;;5118309;28;20931;-37
2023/01/24 01:23:18;;;;;;;16.23;13.80;;;4.10;99.90;;;;;;5118707;28;20227;-36
2023/01/24 01:25:44;;;;;;;17.17;14.00;;;4.10;99.90;;;;;;5118471;28;20176;-37
2023/01/24 01:28:09;;;;;;;17.43;15.40;;;4.10;99.90;;;;;;5118450;28;20184;-37
2023/01/24 01:30:35;;;;;;;17.60;13.87;;;4.10;1.00;;;;;;5118404;28;20234;-37
2023/01/24 01:33:01;;;;;;;17.53;13.97;;;4.10;1.00;;;;;;5116950;28;20195;-37
2023/01/24 01:35:26;;;;;;;15.20;12.53;;;4.10;1.00;;;;;;5117481;28;20306;-37
2023/01/24 01:37:52;;;;;;;18.77;14.47;;;4.10;1.00;;;;;;5118154;28;20565;-37
2023/01/24 01:40:18;;;;;;;15.97;13.13;;;4.10;99.90;;;;;;5117551;28;20494;-37
2023/01/24 01:42:47;;;;;;;17.30;14.10;;;4.10;1.00;;;;;;5118132;28;20179;-38
2023/01/24 01:45:34;;;;;;;17.40;14.73;;;4.10;1.00;;;;;;5117894;28;20421;-37
2023/01/24 01:48:02;;;;;;;17.63;13.67;;;4.10;99.90;;;;;;5118212;28;20405;-37
2023/01/24 01:50:35;;;;;;;17.60;14.40;;;4.10;99.90;;;;;;5118604;28;20457;-37
2023/01/24 01:53:00;;;;;;;16.60;13.20;;;4.10;99.90;;;;;;5118380;28;20446;-37
2023/01/24 01:55:30;;;;;;;16.63;13.70;;;4.10;1.00;;;;;;5118029;28;20911;-37
2023/01/24 01:57:56;;;;;;;16.90;14.20;;;4.10;1.00;;;;;;5118389;28;20176;-37
2023/01/24 02:00:24;;;;;;;18.40;14.70;;;4.10;99.90;;;;;;5116973;28;20422;-37
2023/01/24 02:05:53;;;;;;;16.53;13.97;;;4.10;99.90;;;;;;5116409;28;20424;-38
2023/01/24 02:08:21;;;;;;;17.57;14.23;;;4.10;99.90;;;;;;5118805;28;20418;-37
2023/01/24 02:13:35;;;;;;;16.90;13.60;;;4.10;99.90;;;;;;5117480;28;20417;-37
2023/01/24 02:16:03;;;;;;;18.70;14.63;;;4.10;99.90;;;;;;5117944;28;20421;-37
2023/01/24 02:18:36;;;;;;;19.07;14.97;;;4.10;99.90;;;;;;5117689;28;20683;-37
2023/01/24 02:21:04;;;;;;;16.50;13.30;;;4.10;1.00;;;;;;5117446;28;20512;-37
2023/01/24 02:23:41;;;;;;;18.50;15.23;;;4.10;99.90;;;;;;5117243;28;20538;-38
2023/01/24 02:26:13;;;;;;;16.67;14.87;;;4.10;99.90;;;;;;5116820;28;20442;-36
2023/01/24 02:28:42;;;;;;;20.27;15.00;;;4.10;99.90;;;;;;5116612;28;20750;-36
2023/01/24 02:31:08;;;;;;;17.23;14.83;;;4.10;99.90;;;;;;5115978;28;20488;-37
2023/01/24 02:33:34;;;;;;;18.60;14.40;;;4.10;99.90;;;;;;5116732;28;20512;-36
2023/01/24 02:36:34;;;;;;;18.10;15.50;;;4.10;99.90;;;;;;5117705;28;20171;-37
2023/01/24 02:39:12;;;;;;;17.43;13.93;;;4.10;1.00;;;;;;5117952;28;20592;-37
2023/01/24 02:41:48;;;;;;;20.40;16.10;;;4.10;99.90;;;;;;5117219;28;20456;-37
2023/01/24 02:44:18;;;;;;;18.30;14.13;;;4.10;1.00;;;;;;5117601;28;20583;-37
2023/01/24 02:46:44;;;;;;;17.33;14.27;;;4.10;1.00;;;;;;5117239;28;20546;-38
2023/01/24 02:49:10;;;;;;;19.37;14.80;;;4.10;1.00;;;;;;5117303;28;20476;-37
2023/01/24 02:54:21;;;;;;;21.57;16.10;;;4.00;1.00;;;;;;5116682;28;20773;-38
2023/01/24 02:59:31;;;;;;;22.33;14.93;;;4.10;1.00;;;;;;5117680;28;20195;-37
2023/01/24 03:01:56;;;;;;;18.53;15.10;;;4.10;1.00;;;;;;5117510;28;20406;-37
2023/01/24 03:04:22;;;;;;;20.87;16.40;;;4.10;1.00;;;;;;5117029;28;20193;-38
2023/01/24 03:06:48;;;;;;;19.30;15.87;;;4.00;1.00;;;;;;5117880;28;20194;-37
2023/01/24 03:09:33;;;;;;;16.87;14.60;;;4.00;1.00;;;;;;5117363;28;20230;-37
2023/01/24 03:36:40;;;;;;;19.00;15.67;;;4.00;1.00;;;;;;5100534;28;20650;-37
2023/01/24 03:41:50;;;;;;;18.53;15.10;;;4.00;19.30;;;;;;5098354;28;20191;-37
2023/01/24 03:44:15;;;;;;;16.60;14.13;;;3.90;95.10;;;;;;5096937;28;20418;-37
2023/01/24 03:46:41;;;;;;;21.10;15.60;;;3.90;99.90;;;;;;5096995;28;20242;-38
2023/01/24 03:49:07;;;;;;;18.10;14.17;;;3.90;99.90;;;;;;5096504;28;20238;-38
2023/01/24 03:54:17;;;;;;;23.00;16.20;;;3.90;99.90;;;;;;5096942;28;20428;-37
2023/01/24 03:56:42;;;;;;;17.77;14.60;;;3.90;99.90;;;;;;5098400;28;20751;-37
2023/01/24 03:59:08;;;;;;;17.50;15.00;;;3.90;99.90;;;;;;5096158;28;20272;-36
2023/01/24 04:01:34;;;;;;;18.87;14.73;;;3.90;99.90;;;;;;5096267;28;20180;-37
2023/01/24 04:03:59;;;;;;;18.50;14.60;;;3.90;99.90;;;;;;5096252;28;20461;-36
2023/01/24 04:06:25;;;;;;;17.13;13.47;;;3.90;99.90;;;;;;5099471;28;20168;-42
2023/01/24 04:08:51;;;;;;;19.60;15.37;;;3.90;99.90;;;;;;5097410;28;20184;-37
2023/01/24 04:11:17;;;;;;;18.67;14.67;;;3.90;99.90;;;;;;5097901;28;20203;-37
2023/01/24 04:13:42;;;;;;;19.87;14.50;;;3.90;99.90;;;;;;5097635;28;20172;-37
2023/01/24 04:16:09;;;;;;;17.57;13.97;;;3.90;99.90;;;;;;5098646;28;20492;-37
2023/01/24 04:18:36;;;;;;;20.27;16.30;;;3.90;99.90;;;;;;5098219;28;20285;-37
2023/01/24 04:21:03;;;;;;;17.63;13.80;;;3.90;99.90;;;;;;5098364;28;20414;-37
2023/01/24 04:23:29;;;;;;;21.03;16.43;;;3.90;99.90;;;;;;5100000;28;20573;-37
2023/01/24 04:25:57;;;;;;;20.23;15.30;;;3.90;99.90;;;;;;5100453;28;20407;-37
2023/01/24 04:28:23;;;;;;;21.13;16.70;;;3.90;99.90;;;;;;5099615;28;20483;-37
2023/01/24 04:30:55;;;;;;;23.20;16.53;;;3.90;99.90;;;;;;5099743;28;20450;-37
2023/01/24 04:33:20;;;;;;;18.93;16.43;;;3.90;99.90;;;;;;5097650;28;20721;-37
2023/01/24 04:35:46;;;;;;;20.00;16.40;;;3.90;99.90;;;;;;5098849;28;20422;-36
2023/01/24 04:38:11;;;;;;;21.20;17.47;;;3.90;99.90;;;;;;5099772;28;20198;-37
2023/01/24 04:40:37;;;;;;;20.20;14.93;;;3.90;99.90;;;;;;5097988;28;20390;-38
2023/01/24 04:43:03;;;;;;;22.00;16.63;;;3.90;99.90;;;;;;5096752;28;20207;-37
2023/01/24 04:45:28;;;;;;;20.00;15.30;;;3.90;99.90;;;;;;5096706;28;20279;-37
2023/01/24 04:47:54;;;;;;;19.67;14.83;;;3.90;99.90;;;;;;5096176;28;20237;-37
2023/01/24 04:50:20;;;;;;;20.30;15.67;;;3.90;99.90;;;;;;5095127;28;20479;-37
2023/01/24 04:52:45;;;;;;;17.37;14.90;;;3.90;99.90;;;;;;5095820;28;20171;-37
2023/01/24 04:55:11;;;;;;;19.73;15.83;;;3.90;99.90;;;;;;5096234;28;20230;-37
2023/01/24 04:57:37;;;;;;;22.33;16.43;;;3.90;99.90;;;;;;5097164;28;20168;-37
2023/01/24 05:00:04;;;;;;;21.60;16.93;;;3.90;99.90;;;;;;5097826;28;20455;-37
2023/01/24 05:02:29;;;;;;;19.60;14.63;;;3.90;99.90;;;;;;5097909;28;20473;-37
2023/01/24 05:04:55;;;;;;;19.70;14.37;;;3.90;99.90;;;;;;5097371;28;20491;-37
2023/01/24 05:07:21;;;;;;;20.60;15.57;;;3.90;1.00;;;;;;5097346;28;20254;-36
2023/01/24 05:09:47;;;;;;;18.90;15.60;;;3.90;99.90;;;;;;5096195;28;20261;-38
2023/01/24 05:12:12;;;;;;;20.73;15.10;;;3.90;99.90;;;;;;5097314;28;20421;-37
2023/01/24 05:14:38;;;;;;;17.73;14.80;;;3.90;99.90;;;;;;5096911;28;20172;-38
2023/01/24 05:17:04;;;;;;;19.43;16.10;;;3.90;99.90;;;;;;5097110;28;20177;-36
2023/01/24 05:19:29;;;;;;;22.97;16.50;;;3.90;1.00;;;;;;5097349;28;20280;-37
2023/01/24 05:21:55;;;;;;;20.63;15.83;;;3.90;1.00;;;;;;5098599;28;20183;-37
2023/01/24 05:24:21;;;;;;;19.73;15.60;;;3.80;1.00;;;;;;5098090;28;20264;-36
2023/01/24 05:26:46;;;;;;;19.13;16.20;;;3.90;1.00;;;;;;5097212;28;20172;-37
2023/01/24 05:29:12;;;;;;;19.70;16.13;;;3.80;1.00;;;;;;5097110;28;20336;-37
2023/01/24 05:31:37;;;;;;;24.17;16.40;;;3.90;1.00;;;;;;5096215;28;20566;-36
2023/01/24 05:34:05;;;;;;;20.80;16.50;;;3.80;1.00;;;;;;5096584;28;20176;-37
2023/01/24 05:36:31;;;;;;;19.03;14.60;;;3.90;1.00;;;;;;5097747;28;20204;-37
2023/01/24 05:38:56;;;;;;;20.40;16.57;;;3.90;1.00;;;;;;5097140;28;20434;-37
2023/01/24 05:41:22;;;;;;;20.00;15.90;;;3.90;1.00;;;;;;5095497;28;20414;-38
2023/01/24 05:43:49;;;;;;;19.87;16.20;;;3.90;1.00;;;;;;5094342;28;20295;-37
2023/01/24 05:46:19;;;;;;;18.40;14.27;;;3.90;1.00;;;;;;5094924;28;20169;-37
2023/01/24 05:48:46;;;;;;;18.53;14.40;;;3.90;1.00;;;;;;5094749;28;20815;-38
2023/01/24 05:51:14;;;;;;;23.63;17.43;;;3.90;1.00;;;;;;5092962;28;20453;-37
2023/01/24 05:53:41;;;;;;;19.97;16.13;;;3.90;1.00;;;;;;5095065;28;20434;-37
2023/01/24 05:56:13;;;;;;;18.17;15.80;;;3.80;1.00;;;;;;5095568;28;20442;-37
2023/01/24 05:58:38;;;;;;;20.97;15.30;;;3.80;1.00;;;;;;5095476;28;20427;-37
2023/01/24 06:01:16;;;;;;;19.83;15.97;;;3.80;1.00;;;;;;5097345;28;20563;-37
2023/01/24 06:03:43;;;;;;;19.57;15.97;;;3.90;1.00;;;;;;5109694;28;20484;-37
2023/01/24 06:06:10;;;;;;;19.93;15.70;;;3.80;1.00;;;;;;5103786;28;20494;-37
2023/01/24 06:08:36;;;;;;;19.37;15.33;;;3.80;1.00;;;;;;5097852;28;20449;-36
2023/01/24 06:11:04;;;;;;;22.47;16.57;;;3.80;1.00;;;;;;5096937;28;20478;-37
2023/01/24 06:13:29;;;;;;;20.77;15.40;;;3.80;1.00;;;;;;5093451;28;20437;-37
2023/01/24 06:16:13;;;;;;;21.33;17.70;;;3.80;1.00;;;;;;5093092;28;20820;-37
2023/01/24 06:18:39;;;;;;;19.73;14.67;;;3.80;13.80;;;;;;5093248;28;20176;-37
2023/01/24 06:21:32;;;;;;;20.03;14.47;;;3.80;34.80;;;;;;5090220;28;20450;-37
2023/01/24 06:23:58;;;;;;;23.37;15.90;;;3.80;43.20;;;;;;5086509;28;20466;-36
2023/01/24 06:26:24;;;;;;;19.20;15.97;;;3.80;9.70;;;;;;5089744;28;20750;-37
2023/01/24 06:28:49;;;;;;;22.55;17.25;;;3.80;22.40;;;;;;5091167;28;20436;-37
2023/01/24 06:31:54;;;;;;;20.93;15.60;;;3.80;67.80;;;;;;5090477;28;20507;-36
2023/01/24 06:34:58;;;;;;;21.70;16.37;;;3.80;99.80;;;;;;5008640;28;20572;-37
2023/01/24 06:37:29;;;;;;;21.37;16.17;;;3.80;31.10;;;;;;5004516;28;20533;-37
2023/01/24 06:39:55;;;;;;;20.33;15.57;;;3.80;52.20;;;;;;5068628;28;20466;-37
2023/01/24 06:42:22;;;;;;;19.53;14.87;;;3.80;92.00;;;;;;5089687;28;20430;-38
2023/01/24 06:44:48;;;;;;;22.77;16.43;;;3.80;99.90;;;;;;5088494;28;20717;-37
2023/01/24 06:47:14;;;;;;;21.80;16.53;;;3.80;99.90;;;;;;5089116;28;20418;-38
2023/01/24 06:49:40;;;;;;;21.57;16.33;;;3.80;99.90;;;;;;5089813;28;20572;-37
2023/01/24 06:52:06;;;;;;;21.37;16.00;;;3.80;99.90;;;;;;5092913;28;20448;-37
2023/01/24 06:54:33;;;;;;;18.80;14.67;;;3.80;99.90;;;;;;5094471;28;20447;-37
2023/01/24 06:56:59;;;;;;;20.53;16.60;;;3.80;99.90;;;;;;5093276;28;20415;-37
2023/01/24 06:59:24;;;;;;;21.00;16.50;;;3.80;99.90;;;;;;5091964;28;20437;-37
2023/01/24 07:01:50;;;;;;;21.83;16.93;;;3.80;99.90;;;;;;5094787;28;20459;-37
2023/01/24 07:04:16;;;;;;;21.83;16.20;;;3.80;99.90;;;;;;5092532;28;20249;-37
2023/01/24 07:06:42;;;;;;;22.63;16.37;;;3.90;99.90;;;;;;5092514;28;20419;-36
2023/01/24 07:09:08;;;;;;;22.80;16.70;;;3.90;99.90;;;;;;5091086;28;20978;-38
2023/01/24 07:11:33;;;;;;;22.63;17.00;;;3.90;99.90;;;;;;5090273;28;20429;-37
2023/01/24 07:13:59;;;;;;;21.80;17.10;;;3.90;99.90;;;;;;5091872;28;20168;-37
2023/01/24 07:16:25;;;;;;;18.50;15.73;;;3.80;99.90;;;;;;5093160;28;20439;-38
2023/01/24 07:18:51;;;;;;;22.47;17.57;;;3.90;99.90;;;;;;5091915;28;20327;-38
2023/01/24 07:21:17;;;;;;;21.67;17.80;;;3.90;92.80;;;;;;5091811;28;20184;-37
2023/01/24 07:23:47;;;;;;;21.97;17.30;;;3.90;23.60;;;;;;5092519;28;20493;-37
2023/01/24 07:26:13;;;;;;;24.93;17.53;;;3.90;43.70;;;;;;5091707;28;20832;-37
2023/01/24 07:28:39;;;;;;;18.90;15.23;;;3.90;57.30;;;;;;5093948;28;20418;-37
2023/01/24 07:31:05;;;;;;;22.83;17.80;;;3.90;66.90;;;;;;5094347;28;20576;-37
2023/01/24 07:33:31;;;;;;;19.33;16.00;;;3.90;50.00;;;;;;5093759;28;20550;-39
2023/01/24 07:35:57;;;;;;;21.50;15.47;;;3.90;40.50;;;;;;5093375;28;20422;-38
2023/01/24 07:38:22;;;;;;;24.20;16.97;;;3.90;42.00;;;;;;5094006;28;20168;-38
2023/01/24 07:40:48;;;;;;;23.70;17.70;;;3.90;13.00;;;;;;5097620;28;20443;-38
2023/01/24 07:43:13;;;;;;;22.07;16.20;;;3.90;1.00;;;;;;5098734;28;20207;-37
2023/01/24 07:45:39;;;;;;;22.93;17.50;;;4.00;1.00;;;;;;5097584;28;20257;-37
2023/01/24 07:48:06;;;;;;;22.73;17.07;;;4.00;1.00;;;;;;5099419;28;20258;-39
2023/01/24 07:50:33;;;;;;;7.80;5.70;;;4.00;67.30;;;;;;5098089;28;20381;-39
2023/01/24 07:52:59;;;;;;;18.13;12.37;;;5.30;1.00;;;;;;5098355;28;20839;-40
2023/01/24 07:55:25;;;;;;;18.67;12.20;;;6.80;1.00;;;;;;5096055;28;20479;-39
2023/01/24 07:57:51;;;;;;;20.83;13.33;;;7.90;1.00;;;;;;5096691;28;20180;-38
2023/01/24 08:00:17;;;;;;;21.53;14.30;;;8.80;1.00;;;;;;5096221;28;20464;-38
2023/01/24 08:02:44;;;;;;;19.37;16.53;;;9.10;1.00;;;;;;5096443;28;20190;-38
2023/01/24 08:05:10;;;;;;;21.67;18.30;;;8.80;1.00;;;;;;5098366;28;20441;-38
2023/01/24 08:07:36;;;;;;;21.73;19.13;;;8.40;1.00;;;;;;5096570;28;20433;-38
2023/01/24 08:10:02;;;;;;;23.20;18.53;;;8.00;99.90;;;;;;5097149;28;20480;-38
2023/01/24 08:12:28;;;;;;;21.20;17.60;;;7.60;6.90;;;;;;5096890;28;20880;-38
2023/01/24 08:14:53;;;;;;;24.30;19.53;;;7.10;99.90;;;;;;5093869;28;20716;-38
2023/01/24 08:17:19;;;;;;;23.67;19.10;;;6.80;1.00;;;;;;5098401;28;20191;-37
2023/01/24 08:19:44;;;;;;;22.00;18.17;;;6.50;99.90;;;;;;5096931;28;20562;-38
2023/01/24 08:22:10;;;;;;;22.80;18.07;;;6.30;1.00;;;;;;5097809;28;20587;-38
2023/01/24 08:24:37;;;;;;;22.50;18.40;;;6.10;99.90;;;;;;5097458;28;20240;-38
2023/01/24 08:27:03;;;;;;;23.90;18.17;;;5.90;99.90;;;;;;5096157;28;20212;-38
2023/01/24 08:29:29;;;;;;;23.63;18.57;;;5.80;49.70;;;;;;5098053;28;20558;-37
2023/01/24 08:31:55;;;;;;;24.40;17.83;;;5.60;1.00;;;;;;5096787;28;20419;-37
2023/01/24 08:34:21;;;;;;;25.47;18.33;;;5.60;1.00;;;;;;5094739;28;20813;-37
2023/01/24 08:36:46;;;;;;;25.27;19.43;;;5.50;1.00;;;;;;5094985;28;20514;-37
2023/01/24 08:39:12;;;;;;;23.27;18.17;;;5.40;1.00;;;;;;5095799;28;21117;-37
2023/01/24 08:41:38;;;;;;;24.97;18.30;;;5.30;1.00;;;;;;5095001;28;20434;-38
2023/01/24 08:44:04;;;;;;;23.27;17.80;;;5.30;1.00;;;;;;5095646;28;20340;-37
2023/01/24 08:46:31;;;;;;;21.17;16.70;;;5.30;1.00;;;;;;5094380;28;20555;-37
2023/01/24 08:48:57;;;;;;;25.00;18.93;;;5.20;1.00;;;;;;5095784;28;20414;-37
2023/01/24 08:51:22;;;;;;;22.03;17.63;;;5.20;99.90;;;;;;5096380;28;20735;-38
2023/01/24 08:53:48;;;;;;;21.23;16.37;;;5.20;99.90;;;;;;5095216;28;20241;-37
2023/01/24 08:56:13;;;;;;;20.50;16.33;;;5.20;99.90;;;;;;5095519;28;20232;-37
2023/01/24 08:58:39;;;;;;;21.50;16.37;;;5.20;99.90;;;;;;5096891;28;20172;-37
2023/01/24 09:01:09;;;;;;;19.43;15.67;;;5.20;99.90;;;;;;5096767;28;20216;-37
2023/01/24 09:03:35;;;;;;;19.40;15.37;;;5.20;99.90;;;;;;5096063;28;20172;-37
2023/01/24 09:06:00;;;;;;;20.87;16.30;;;5.20;99.90;;;;;;5097734;28;20473;-38
2023/01/24 09:08:26;;;;;;;23.23;16.97;;;5.20;99.90;;;;;;5097077;28;20844;-38
2023/01/24 09:10:52;;;;;;;21.60;16.67;;;5.30;99.90;;;;;;5095303;28;20298;-37
2023/01/24 09:13:17;;;;;;;21.50;16.60;;;5.30;99.90;;;;;;5096911;28;20191;-37
2023/01/24 09:15:43;;;;;;;23.37;18.20;;;5.30;97.60;;;;;;5097491;28;20202;-38
2023/01/24 09:18:09;;;;;;;22.43;16.17;;;5.40;17.10;;;;;;5097415;28;20192;-37
2023/01/24 09:20:34;;;;;;;22.10;16.10;;;5.40;1.00;;;;;;5097574;28;20581;-37
2023/01/24 09:23:06;;;;;;;19.07;15.23;;;5.40;1.00;;;;;;5095281;28;20614;-37
2023/01/24 09:25:32;;;;;;;18.57;15.13;;;5.50;1.00;;;;;;5094110;28;20181;-37
2023/01/24 09:27:58;;;;;;;20.30;15.03;;;5.50;99.90;;;;;;5093953;28;20521;-37
2023/01/24 09:30:23;;;;;;;16.73;14.93;;;5.50;99.90;;;;;;5094887;28;20526;-38
2023/01/24 09:32:49;;;;;;;19.30;14.53;;;5.50;99.90;;;;;;5094369;28;20172;-37
2023/01/24 09:35:15;;;;;;;19.37;15.43;;;5.60;18.40;;;;;;5095732;28;20187;-37
2023/01/24 09:37:42;;;;;;;19.10;15.60;;;5.60;1.00;;;;;;5093369;28;20423;-37
2023/01/24 09:40:44;;;;;;;20.60;15.03;;;5.60;1.00;;;;;;5096357;28;20180;-37
2023/01/24 09:43:21;;;;;;;19.20;15.83;;;5.70;1.00;;;;;;5027031;28;20831;-39
2023/01/24 09:46:05;;;;;;;18.73;15.70;;;5.70;1.00;;;;;;5095686;28;20715;-38
2023/01/24 09:48:33;;;;;;;19.20;14.87;;;5.70;99.90;;;;;;5094861;28;20410;-38
2023/01/24 09:51:03;;;;;;;18.27;16.17;;;5.70;99.90;;;;;;5097172;28;20481;-38
2023/01/24 09:53:44;;;;;;;19.37;16.33;;;5.80;99.90;;;;;;5097212;28;20793;-38
2023/01/24 09:56:26;;;;;;;18.83;14.20;;;5.80;99.90;;;;;;5095484;28;20529;-38
2023/01/24 09:59:14;;;;;;;20.50;15.20;;;5.90;99.90;;;;;;5105919;28;20529;-38
2023/01/24 10:01:40;;;;;;;21.33;15.40;;;6.00;99.90;;;;;;5104314;28;20418;-37
2023/01/24 10:04:16;;;;;;;17.03;14.23;;;6.00;1.00;;;;;;5111696;28;20516;-38
2023/01/24 10:07:10;;;;;;;18.80;15.80;;;6.20;1.00;;;;;;5113953;28;20422;-38
2023/01/24 10:10:01;;;;;;;18.07;15.27;;;6.20;1.00;;;;;;5067217;28;20701;-38
2023/01/24 10:12:50;;;;;;;21.53;15.70;;;6.30;1.00;;;;;;5114423;28;20504;-38
2023/01/24 10:15:39;;;;;;;19.03;14.57;;;6.30;99.90;;;;;;5115426;28;20453;-38
2023/01/24 10:18:08;;;;;;;20.80;15.70;;;6.30;99.90;;;;;;5115995;28;20497;-38
2023/01/24 10:20:50;;;;;;;20.90;15.70;;;6.40;99.90;;;;;;5116728;28;20847;-36
2023/01/24 10:23:34;;;;;;;18.17;13.73;;;6.40;99.90;;;;;;5116230;28;20465;-38
2023/01/24 10:26:21;;;;;;;19.17;15.30;;;6.40;99.90;;;;;;5115364;28;20445;-36
2023/01/24 10:28:51;;;;;;;20.50;14.90;;;6.40;99.90;;;;;;5115719;28;20413;-36
2023/01/24 10:31:25;;;;;;;20.13;15.53;;;6.40;99.90;;;;;;5113128;28;20567;-36
2023/01/24 10:34:14;;;;;;;21.63;16.90;;;6.40;99.90;;;;;;5114339;28;20953;-36
2023/01/24 10:37:02;;;;;;;20.20;15.27;;;6.40;66.90;;;;;;5113411;28;20434;-36
2023/01/24 10:39:28;;;;;;;18.73;14.93;;;6.40;17.10;;;;;;5114411;28;20509;-38
2023/01/24 10:41:54;;;;;;;19.40;15.20;;;6.40;3.40;;;;;;5112709;28;20479;-35
2023/01/24 10:44:30;;;;;;;20.37;15.10;;;6.40;10.10;;;;;;5113786;28;20193;-35
2023/01/24 10:47:22;;;;;;;20.33;16.00;;;6.40;2.20;;;;;;5111818;28;20414;-36
2023/01/24 10:49:58;;;;;;;19.47;15.40;;;6.40;1.00;;;;;;5112701;28;20464;-37
2023/01/24 10:52:24;;;;;;;19.87;15.80;;;6.50;1.00;;;;;;5114292;28;20535;-36
2023/01/24 10:54:56;;;;;;;18.77;14.70;;;6.50;1.00;;;;;;5114483;28;20420;-36
2023/01/24 10:57:24;;;;;;;20.20;15.67;;;6.60;1.00;;;;;;5113765;28;20659;-36
2023/01/24 10:59:51;;;;;;;19.43;15.50;;;6.60;1.00;;;;;;5113369;28;20429;-37
2023/01/24 11:02:22;;;;;;;19.23;15.03;;;6.60;1.00;;;;;;5111875;28;20481;-38
2023/01/24 11:04:55;;;;;;;19.57;15.27;;;6.70;1.00;;;;;;5113715;28;20432;-36
2023/01/24 11:07:38;;;;;;;18.37;14.43;;;6.70;1.00;;;;;;5113496;28;20454;-36
2023/01/24 11:10:16;;;;;;;16.60;13.57;;;6.70;1.00;;;;;;5114101;28;20885;-36
2023/01/24 11:12:54;;;;;;;17.07;14.43;;;6.70;1.00;;;;;;5115376;28;20433;-36
2023/01/24 11:15:32;;;;;;;16.03;13.20;;;6.70;1.00;;;;;;5117945;28;20490;-36
2023/01/24 11:18:21;;;;;;;16.57;13.43;;;6.70;99.90;;;;;;5117500;28;20445;-36
2023/01/24 11:21:15;;;;;;;16.60;13.97;;;6.80;99.90;;;;;;5117255;28;20431;-36
2023/01/24 11:23:41;;;;;;;16.90;13.90;;;6.80;99.90;;;;;;5114584;28;20978;-38
2023/01/24 11:26:24;;;;;;;17.00;13.70;;;6.80;99.90;;;;;;5117852;28;20456;-36
2023/01/24 11:29:05;;;;;;;16.47;13.30;;;6.90;99.90;;;;;;5119011;28;20696;-36
2023/01/24 11:31:53;;;;;;;13.90;11.60;;;6.90;99.90;;;;;;5117129;28;20715;-36
2023/01/24 11:34:37;;;;;;;15.40;12.73;;;6.90;99.90;;;;;;5116864;28;20447;-37
2023/01/24 11:37:17;;;;;;;16.40;12.13;;;6.90;99.90;;;;;;5118359;28;20409;-38
2023/01/24 11:40:10;;;;;;;16.27;13.37;;;6.90;99.90;;;;;;5120196;28;20421;-37
2023/01/24 11:42:39;;;;;;;11.07;8.50;;;7.00;99.90;;;;;;5118820;28;20414;-37
2023/01/24 11:45:07;;;;;;;9.17;7.03;;;7.10;1.00;;;;;;5116332;27;20486;-38
2023/01/24 11:47:36;;;;;;;9.20;7.67;;;8.40;1.00;;;;;;5117883;28;20432;-38
2023/01/24 11:50:50;;;;;;;8.77;7.33;;;9.30;1.00;;;;;;5115125;28;21125;-39
2023/01/24 11:53:18;;;;;;;9.20;7.00;;;10.30;1.00;;;;;;5084627;28;20586;-38
2023/01/24 11:56:05;;;;;;;12.47;6.90;;;11.20;1.00;;;;;;5114836;28;20440;-37
2023/01/24 11:59:00;;;;;;;8.23;7.40;;;12.00;99.90;;;;;;5109618;28;20448;-37
2023/01/24 12:01:47;;;;;;;11.20;9.37;;;12.20;1.00;;;;;;5118146;28;20425;-39
2023/01/24 12:04:35;;;;;;;13.20;11.30;;;12.00;99.90;;;;;;5117007;28;20437;-37
2023/01/24 12:07:21;;;;;;;11.87;10.67;;;11.50;99.90;;;;;;5114617;28;20566;-38
2023/01/24 12:10:06;;;;;;;12.97;11.53;;;10.90;1.00;;;;;;5116647;28;20491;-38
2023/01/24 12:12:43;;;;;;;12.30;11.00;;;10.40;1.00;;;;;;5117773;28;20508;-39
2023/01/24 12:16:00;;;;;;;13.30;11.83;;;10.00;1.00;;;;;;5118645;28;20416;-37
2023/01/24 12:18:44;;;;;;;11.60;9.77;;;9.70;1.00;;;;;;5054122;28;20812;-37
2023/01/24 12:21:10;;;;;;;12.03;9.97;;;9.40;1.00;;;;;;5094678;28;20426;-38
2023/01/24 12:23:45;;;;;;;12.90;10.37;;;9.30;1.00;;;;;;5094037;28;20973;-37
2023/01/24 12:26:25;;;;;;;12.43;10.33;;;9.10;1.00;;;;;;5093296;28;20438;-38
2023/01/24 12:28:53;;;;;;;12.97;11.20;;;8.90;99.90;;;;;;5093159;28;20433;-36
2023/01/24 12:31:26;;;;;;;11.33;9.73;;;8.80;99.90;;;;;;5089880;28;20476;-38
2023/01/24 12:34:08;;;;;;;12.47;11.17;;;8.70;99.90;;;;;;5091970;28;20660;-37
2023/01/24 12:37:10;;;;;;;12.47;11.03;;;8.50;99.90;;;;;;5091065;28;20433;-36
2023/01/24 12:40:00;;;;;;;13.10;11.30;;;8.50;1.00;;;;;;5086753;28;20506;-36
2023/01/24 12:43:00;;;;;;;12.30;10.57;;;8.40;1.00;;;;;;5091386;28;20426;-37
2023/01/24 12:45:28;;;;;;;14.57;11.43;;;8.30;1.00;;;;;;5073537;28;20792;-37
2023/01/24 12:48:03;;;;;;;14.93;12.77;;;8.30;1.00;;;;;;5094609;28;20410;-37
2023/01/24 12:50:40;;;;;;;12.77;11.03;;;8.20;1.00;;;;;;5115398;27;20563;-37
2023/01/24 12:53:47;;;;;;;14.30;12.27;;;8.20;1.00;;;;;;5114534;28;20546;-37
2023/01/24 12:56:19;;;;;;;14.47;12.00;;;8.10;1.00;;;;;;5072698;28;20443;-36
2023/01/24 12:58:48;;;;;;;14.87;12.17;;;8.10;1.00;;;;;;5072802;28;20794;-36
2023/01/24 13:01:26;;;;;;;14.27;12.43;;;8.00;1.00;;;;;;5085345;28;20433;-37
2023/01/24 13:04:10;;;;;;;14.33;12.83;;;8.00;1.00;;;;;;5116660;28;20879;-37
2023/01/24 13:06:47;;;;;;;13.60;11.60;;;8.00;1.00;;;;;;5117368;28;20409;-36
2023/01/24 13:09:19;;;;;;;13.80;12.40;;;8.00;1.00;;;;;;5116153;28;20706;-37
2023/01/24 13:11:45;;;;;;;15.77;13.27;;;8.00;1.00;;;;;;5116324;28;20440;-38
2023/01/24 13:14:14;;;;;;;14.43;12.93;;;8.00;1.00;;;;;;5117190;28;20424;-37
2023/01/24 13:17:02;;;;;;;14.63;12.50;;;8.00;1.00;;;;;;5116686;28;20711;-37
2023/01/24 13:19:44;;;;;;;16.87;13.30;;;7.90;1.00;;;;;;5117874;28;20454;-37
2023/01/24 13:22:31;;;;;;;14.10;12.60;;;7.90;1.00;;;;;;5118210;28;20739;-38
2023/01/24 13:25:34;;;;;;;13.97;11.90;;;7.80;1.00;;;;;;5117024;28;20429;-37
2023/01/24 13:28:16;;;;;;;16.00;12.13;;;7.70;1.00;;;;;;5116642;28;20424;-39
2023/01/24 13:30:47;;;;;;;13.87;11.87;;;7.70;1.00;;;;;;5116887;28;20472;-37
2023/01/24 13:33:49;;;;;;;13.07;11.63;;;7.60;1.00;;;;;;5115102;28;20440;-37
2023/01/24 13:36:20;;;;;;;14.70;12.80;;;7.60;1.00;;;;;;5092274;28;20708;-37
2023/01/24 13:38:47;;;;;;;14.50;12.20;;;7.50;1.00;;;;;;5115649;28;20409;-39
2023/01/24 13:41:33;;;;;;;14.33;12.10;;;7.40;1.00;;;;;;5115439;28;20478;-36